Time;durP1;ratioP1;P1;durP2;ratioP2;P2;SDS_P1;SDS_P2;PMS_P1;PMS_P2;Temp;Humidity;BMP_temperature;BMP_pressure;BME280_temperature;BME280_humidity;BME280_pressure;Samples;Min_cycle;Max_cycle;Signal;HPM_P1;HPM_P2
2022/05/13 00:00:39;;;;;;;;;;;19.20;63.40;;;;;;5113535;28;978;-72
2022/05/13 00:03:04;;;;;;;;;;;19.30;63.50;;;;;;5113629;28;816;-72
2022/05/13 00:05:30;;;;;;;;;;;19.30;63.40;;;;;;5113442;28;1208;-72
2022/05/13 00:07:55;;;;;;;;;;;19.30;63.40;;;;;;5113716;28;847;-72
2022/05/13 00:10:22;;;;;;;;;;;19.30;63.40;;;;;;5094898;28;863;-72
2022/05/13 00:12:48;;;;;;;;;;;19.30;63.50;;;;;;5095461;28;887;-72
2022/05/13 00:15:14;;;;;;;;;;;19.30;63.40;;;;;;5113607;28;1905;-73
2022/05/13 00:17:40;;;;;;;;;;;19.30;63.40;;;;;;5093145;28;1118;-74
2022/05/13 00:20:05;;;;;;;;;;;19.30;63.40;;;;;;5088336;28;1149;-72
2022/05/13 00:22:31;;;;;;;;;;;19.20;63.40;;;;;;5054855;28;1239;-72
2022/05/13 00:24:57;;;;;;;;;;;19.20;63.50;;;;;;5054938;28;1375;-72
2022/05/13 00:27:23;;;;;;;;;;;19.30;63.50;;;;;;5069965;28;1343;-73
2022/05/13 00:29:48;;;;;;;;;;;19.30;64.20;;;;;;5113198;28;816;-73
2022/05/13 00:32:14;;;;;;;;;;;19.20;63.40;;;;;;5095133;28;891;-72
2022/05/13 00:34:40;;;;;;;;;;;19.20;63.40;;;;;;5094615;28;1897;-72
2022/05/13 00:37:05;;;;;;;;;;;19.20;63.40;;;;;;5073856;28;2101;-73
2022/05/13 00:39:30;;;;;;;;;;;19.20;63.40;;;;;;5067160;28;1251;-73
2022/05/13 00:42:04;;;;;;;;;;;19.20;63.40;;;;;;5068398;28;1220;-75
2022/05/13 00:44:29;;;;;;;;;;;19.20;63.40;;;;;;5063711;28;1386;-75
2022/05/13 00:46:54;;;;;;;;;;;19.20;63.40;;;;;;5066234;28;1283;-73
2022/05/13 00:49:21;;;;;;;;;;;19.20;63.40;;;;;;5084651;28;1167;-74
2022/05/13 00:51:47;;;;;;;;;;;19.20;63.40;;;;;;5086723;28;1960;-73
2022/05/13 00:54:13;;;;;;;;;;;19.20;63.40;;;;;;5074185;28;1296;-72
2022/05/13 00:56:43;;;;;;;;;;;19.20;63.40;;;;;;5091177;28;1967;-72
2022/05/13 00:59:08;;;;;;;;;;;19.20;63.40;;;;;;5067065;28;1225;-73
2022/05/13 01:01:34;;;;;;;;;;;19.20;63.40;;;;;;5068273;28;1224;-72
2022/05/13 01:04:03;;;;;;;;;;;19.20;63.40;;;;;;5068343;28;1287;-73
2022/05/13 01:06:29;;;;;;;;;;;19.20;63.40;;;;;;5066316;28;1253;-72
2022/05/13 01:08:56;;;;;;;;;;;19.20;63.40;;;;;;5068962;28;1284;-72
2022/05/13 01:11:22;;;;;;;;;;;19.20;63.50;;;;;;5068706;28;1267;-72
2022/05/13 01:13:49;;;;;;;;;;;19.20;63.40;;;;;;5066141;28;1373;-72
2022/05/13 01:16:14;;;;;;;;;;;19.20;64.20;;;;;;5058207;28;1969;-73
2022/05/13 01:18:40;;;;;;;;;;;19.30;63.50;;;;;;5068666;28;1186;-73
2022/05/13 01:21:06;;;;;;;;;;;19.20;63.40;;;;;;5078054;28;1115;-73
2022/05/13 01:23:36;;;;;;;;;;;19.20;64.20;;;;;;5078114;28;816;-73
2022/05/13 01:26:05;;;;;;;;;;;19.20;63.40;;;;;;5082882;28;1186;-73
2022/05/13 01:28:32;;;;;;;;;;;19.20;63.50;;;;;;5098384;28;899;-73
2022/05/13 01:30:58;;;;;;;;;;;19.20;63.40;;;;;;5098156;28;1321;-73
2022/05/13 01:33:24;;;;;;;;;;;19.20;63.40;;;;;;5098253;28;794;-73
2022/05/13 01:35:50;;;;;;;;;;;19.20;63.40;;;;;;5081109;28;1902;-73
2022/05/13 01:38:16;;;;;;;;;;;19.20;63.50;;;;;;5098115;28;1321;-73
2022/05/13 01:40:41;;;;;;;;;;;19.20;63.40;;;;;;5116176;28;920;-73
2022/05/13 01:43:07;;;;;;;;;;;19.20;63.40;;;;;;5098355;28;1337;-73
2022/05/13 01:45:32;;;;;;;;;;;19.20;63.40;;;;;;5116288;28;1203;-72
2022/05/13 01:47:58;;;;;;;;;;;19.30;63.50;;;;;;5116176;28;1069;-72
2022/05/13 01:50:24;;;;;;;;;;;19.20;63.50;;;;;;5097748;28;880;-72
2022/05/13 01:52:50;;;;;;;;;;;19.20;63.50;;;;;;5116048;28;883;-73
2022/05/13 01:55:16;;;;;;;;;;;19.20;63.40;;;;;;5098054;28;1894;-72
2022/05/13 01:57:41;;;;;;;;;;;19.20;63.40;;;;;;5097770;28;1219;-74
2022/05/13 02:00:06;;;;;;;;;;;19.20;63.40;;;;;;5097664;28;819;-74
2022/05/13 02:03:43;;;;;;;;;;;19.20;63.40;;;;;;5097746;28;1082;-73
2022/05/13 02:05:17;;;;;;;;;;;19.30;63.50;;;;;;5114855;28;1259;-74
2022/05/13 02:07:43;;;;;;;;;;;19.30;63.50;;;;;;5097508;28;1066;-73
2022/05/13 02:10:08;;;;;;;;;;;19.20;63.40;;;;;;5115682;28;915;-71
2022/05/13 02:12:34;;;;;;;;;;;19.20;63.50;;;;;;5115741;28;1069;-71
2022/05/13 02:14:59;;;;;;;;;;;19.20;63.50;;;;;;5097327;28;1942;-74
2022/05/13 02:17:24;;;;;;;;;;;19.20;63.50;;;;;;5097386;28;1216;-75
2022/05/13 02:19:50;;;;;;;;;;;19.20;63.50;;;;;;5074139;28;1286;-73
2022/05/13 02:22:15;;;;;;;;;;;19.20;63.50;;;;;;5075149;28;840;-74
2022/05/13 02:24:41;;;;;;;;;;;19.20;63.50;;;;;;5056998;28;1225;-74
2022/05/13 02:27:06;;;;;;;;;;;19.20;63.50;;;;;;5102321;28;1199;-74
2022/05/13 02:29:31;;;;;;;;;;;19.20;63.50;;;;;;5096994;28;950;-74
2022/05/13 02:31:57;;;;;;;;;;;19.20;63.50;;;;;;5115448;28;959;-74
2022/05/13 02:34:22;;;;;;;;;;;19.20;63.40;;;;;;5115094;28;1270;-72
2022/05/13 02:36:48;;;;;;;;;;;19.30;63.50;;;;;;5096913;28;1902;-74
2022/05/13 02:39:13;;;;;;;;;;;19.20;63.50;;;;;;5115032;28;963;-74
2022/05/13 02:41:39;;;;;;;;;;;19.20;63.50;;;;;;5115114;28;836;-72
2022/05/13 02:44:04;;;;;;;;;;;19.20;63.50;;;;;;5115010;28;1212;-75
2022/05/13 02:46:32;;;;;;;;;;;19.20;63.50;;;;;;5097079;28;855;-72
2022/05/13 02:48:58;;;;;;;;;;;19.20;63.40;;;;;;5096900;28;861;-72
2022/05/13 02:51:23;;;;;;;;;;;19.20;63.50;;;;;;5114766;28;935;-72
2022/05/13 02:53:48;;;;;;;;;;;19.20;63.50;;;;;;5114942;28;1310;-72
2022/05/13 02:56:14;;;;;;;;;;;19.20;63.50;;;;;;5114881;28;1935;-72
2022/05/13 02:58:39;;;;;;;;;;;19.20;63.50;;;;;;5114734;28;701;-72
2022/05/13 03:01:05;;;;;;;;;;;19.20;63.50;;;;;;5114663;28;845;-73
2022/05/13 03:03:30;;;;;;;;;;;19.20;63.50;;;;;;5096312;28;808;-74
2022/05/13 03:05:56;;;;;;;;;;;19.20;63.50;;;;;;5114568;28;1266;-74
2022/05/13 03:08:22;;;;;;;;;;;19.20;63.50;;;;;;5114585;28;1108;-74
2022/05/13 03:10:47;;;;;;;;;;;19.20;63.50;;;;;;5096096;28;1098;-74
2022/05/13 03:13:14;;;;;;;;;;;19.20;63.50;;;;;;5114490;28;821;-74
2022/05/13 03:15:39;;;;;;;;;;;19.20;63.50;;;;;;5095984;28;1902;-74
2022/05/13 03:18:05;;;;;;;;;;;19.20;63.50;;;;;;5090354;28;1142;-74
2022/05/13 03:20:30;;;;;;;;;;;19.20;63.50;;;;;;5085502;28;1639;-74
2022/05/13 03:22:56;;;;;;;;;;;19.20;63.50;;;;;;5056102;28;1027;-73
2022/05/13 03:25:21;;;;;;;;;;;19.20;63.50;;;;;;5055943;28;1273;-74
2022/05/13 03:27:47;;;;;;;;;;;19.20;63.50;;;;;;5094175;28;1315;-74
2022/05/13 03:30:13;;;;;;;;;;;19.20;63.50;;;;;;5095922;28;841;-74
2022/05/13 03:32:38;;;;;;;;;;;19.20;63.50;;;;;;5114220;28;836;-75
2022/05/13 03:35:04;;;;;;;;;;;19.20;63.50;;;;;;5114051;28;1964;-74
2022/05/13 03:37:30;;;;;;;;;;;19.20;63.50;;;;;;5096334;28;1011;-74
2022/05/13 03:39:55;;;;;;;;;;;19.20;63.50;;;;;;5095756;28;1050;-73
2022/05/13 03:42:22;;;;;;;;;;;19.20;63.50;;;;;;5114147;28;1054;-74
2022/05/13 03:44:51;;;;;;;;;;;19.20;63.50;;;;;;5079076;28;1313;-74
2022/05/13 03:47:16;;;;;;;;;;;19.20;63.50;;;;;;5095750;28;1026;-72
2022/05/13 03:49:42;;;;;;;;;;;19.20;63.50;;;;;;5095158;28;1062;-72
2022/05/13 03:52:08;;;;;;;;;;;19.20;63.50;;;;;;5113920;28;800;-74
2022/05/13 03:54:34;;;;;;;;;;;19.20;63.50;;;;;;5102754;28;2146;-68
2022/05/13 03:56:59;;;;;;;;;;;19.20;63.50;;;;;;5057568;28;1891;-72
2022/05/13 03:59:24;;;;;;;;;;;19.20;63.50;;;;;;5092891;28;1149;-72
2022/05/13 04:01:50;;;;;;;;;;;19.20;64.30;;;;;;5093979;28;1122;-71
2022/05/13 04:04:20;;;;;;;;;;;19.20;63.50;;;;;;5075918;28;1213;-71
2022/05/13 04:09:30;;;;;;;;;;;19.20;63.50;;;;;;5093049;28;663;-73
2022/05/13 04:17:23;;;;;;;;;;;19.20;63.50;;;;;;5108709;22;3470;-72
2022/05/13 04:19:49;;;;;;;;;;;19.20;63.50;;;;;;5086114;28;1339;-72
2022/05/13 04:22:15;;;;;;;;;;;19.20;63.50;;;;;;5088710;28;1412;-73
2022/05/13 04:24:40;;;;;;;;;;;19.20;63.50;;;;;;5071649;28;849;-73
2022/05/13 04:27:06;;;;;;;;;;;19.20;63.50;;;;;;5086902;28;1380;-73
2022/05/13 04:29:33;;;;;;;;;;;19.20;63.50;;;;;;5092333;28;843;-73
2022/05/13 04:31:58;;;;;;;;;;;19.20;63.50;;;;;;5091765;28;1337;-73
2022/05/13 04:34:24;;;;;;;;;;;19.20;63.50;;;;;;5091657;28;879;-73
2022/05/13 04:36:49;;;;;;;;;;;19.20;63.50;;;;;;5091581;28;1969;-73
2022/05/13 04:39:15;;;;;;;;;;;19.20;63.50;;;;;;5091460;28;1114;-73
2022/05/13 04:44:24;;;;;;;;;;;19.20;63.50;;;;;;5092176;28;694;-72
2022/05/13 04:46:50;;;;;;;;;;;19.20;63.60;;;;;;5092814;28;1212;-72
2022/05/13 04:49:15;;;;;;;;;;;19.20;63.50;;;;;;5091327;28;753;-73
2022/05/13 04:51:41;;;;;;;;;;;19.20;63.50;;;;;;5092824;28;819;-73
2022/05/13 04:54:06;;;;;;;;;;;19.20;63.50;;;;;;5091304;28;1178;-73
2022/05/13 04:56:32;;;;;;;;;;;19.20;63.60;;;;;;5091298;28;1955;-73
2022/05/13 04:58:57;;;;;;;;;;;19.20;63.50;;;;;;5091483;28;1038;-73
2022/05/13 05:01:23;;;;;;;;;;;19.20;63.50;;;;;;5091234;28;831;-73
2022/05/13 05:03:48;;;;;;;;;;;19.20;63.50;;;;;;5092948;28;792;-73
2022/05/13 05:06:14;;;;;;;;;;;19.20;63.50;;;;;;5092477;28;1209;-72
2022/05/13 05:08:40;;;;;;;;;;;19.20;63.60;;;;;;5092297;28;939;-71
2022/05/13 05:11:06;;;;;;;;;;;19.20;63.50;;;;;;5085344;28;1931;-69
2022/05/13 05:13:34;;;;;;;;;;;19.20;63.50;;;;;;5072515;28;1122;-70
2022/05/13 05:15:59;;;;;;;;;;;19.20;63.60;;;;;;5073707;28;1894;-71
2022/05/13 05:18:25;;;;;;;;;;;19.20;63.60;;;;;;5079565;28;1085;-71
2022/05/13 05:20:51;;;;;;;;;;;19.20;63.60;;;;;;5091964;28;1260;-68
2022/05/13 05:23:19;;;;;;;;;;;19.20;63.70;;;;;;5074129;28;1115;-69
2022/05/13 05:25:45;;;;;;;;;;;19.20;63.80;;;;;;5092450;28;1284;-69
2022/05/13 05:28:10;;;;;;;;;;;19.20;63.80;;;;;;5096897;28;1022;-70
2022/05/13 05:30:36;;;;;;;;;;;19.20;63.80;;;;;;5086494;28;1150;-69
2022/05/13 05:33:01;;;;;;;;;;;19.20;63.80;;;;;;5110382;28;1110;-68
2022/05/13 05:35:27;;;;;;;;;;;19.20;63.80;;;;;;5103924;28;1967;-68
2022/05/13 05:37:52;;;;;;;;;;;19.20;63.80;;;;;;5094205;28;930;-68
2022/05/13 05:40:18;;;;;;;;;;;19.20;63.70;;;;;;5077457;28;935;-67
2022/05/13 05:42:43;;;;;;;;;;;19.20;63.70;;;;;;5112715;28;1204;-70
2022/05/13 05:45:10;;;;;;;;;;;19.20;63.70;;;;;;5090288;28;1410;-70
2022/05/13 05:47:35;;;;;;;;;;;19.20;63.70;;;;;;5097904;28;1219;-70
2022/05/13 05:50:01;;;;;;;;;;;19.20;63.70;;;;;;5097724;28;829;-69
2022/05/13 05:52:26;;;;;;;;;;;19.20;63.70;;;;;;5097744;28;1135;-70
2022/05/13 05:57:36;;;;;;;;;;;19.20;63.70;;;;;;5115990;28;1258;-71
2022/05/13 06:00:04;;;;;;;;;;;19.20;63.70;;;;;;5115658;28;808;-70
2022/05/13 06:02:29;;;;;;;;;;;19.20;63.70;;;;;;5097945;28;964;-70
2022/05/13 06:04:55;;;;;;;;;;;19.20;63.70;;;;;;5115667;28;966;-69
2022/05/13 06:07:20;;;;;;;;;;;19.20;63.70;;;;;;5115648;28;1305;-69
2022/05/13 06:09:45;;;;;;;;;;;19.20;63.70;;;;;;5115427;28;700;-69
2022/05/13 06:12:11;;;;;;;;;;;19.20;63.70;;;;;;5097652;28;812;-69
2022/05/13 06:14:37;;;;;;;;;;;19.20;63.70;;;;;;5115790;28;862;-69
2022/05/13 06:17:02;;;;;;;;;;;19.20;63.70;;;;;;5115580;28;1901;-69
2022/05/13 06:19:28;;;;;;;;;;;19.20;63.70;;;;;;5115266;28;1145;-69
2022/05/13 06:21:53;;;;;;;;;;;19.20;63.70;;;;;;5093959;28;1869;-69
2022/05/13 06:24:19;;;;;;;;;;;19.20;63.70;;;;;;5085143;28;1114;-69
2022/05/13 06:26:48;;;;;;;;;;;19.20;63.70;;;;;;5078377;28;1300;-69
2022/05/13 06:29:14;;;;;;;;;;;19.20;63.70;;;;;;5076971;28;1403;-69
2022/05/13 06:31:40;;;;;;;;;;;19.20;63.70;;;;;;5076905;28;1151;-69
2022/05/13 06:34:05;;;;;;;;;;;19.20;63.70;;;;;;5074551;28;820;-71
2022/05/13 06:36:31;;;;;;;;;;;19.20;63.70;;;;;;5074601;28;1965;-71
2022/05/13 06:38:57;;;;;;;;;;;19.20;63.70;;;;;;5074598;28;863;-71
2022/05/13 06:41:24;;;;;;;;;;;19.20;63.70;;;;;;5074587;28;801;-71
2022/05/13 06:43:49;;;;;;;;;;;19.20;63.70;;;;;;5056886;28;977;-70
2022/05/13 06:46:15;;;;;;;;;;;19.20;63.70;;;;;;5074506;28;1201;-69
2022/05/13 06:48:40;;;;;;;;;;;19.20;63.70;;;;;;5074083;28;959;-69
2022/05/13 06:51:06;;;;;;;;;;;19.20;63.70;;;;;;5074369;28;907;-70
2022/05/13 06:53:31;;;;;;;;;;;19.20;63.70;;;;;;5074430;28;887;-69
2022/05/13 06:55:57;;;;;;;;;;;19.20;63.70;;;;;;5074314;28;1961;-70
2022/05/13 06:58:22;;;;;;;;;;;19.20;63.70;;;;;;5056591;28;864;-71
2022/05/13 07:00:47;;;;;;;;;;;19.20;63.70;;;;;;5056025;28;865;-70
2022/05/13 07:03:13;;;;;;;;;;;19.20;63.70;;;;;;5056179;28;805;-70
2022/05/13 07:05:39;;;;;;;;;;;19.20;63.70;;;;;;5056252;28;1199;-70
2022/05/13 07:08:04;;;;;;;;;;;19.20;63.70;;;;;;5074162;28;808;-69
2022/05/13 07:10:30;;;;;;;;;;;19.20;63.70;;;;;;5074708;28;844;-70
2022/05/13 07:12:55;;;;;;;;;;;19.20;63.70;;;;;;5074093;28;821;-71
2022/05/13 07:15:21;;;;;;;;;;;19.20;63.70;;;;;;5055999;28;1882;-71
2022/05/13 07:17:46;;;;;;;;;;;19.20;63.70;;;;;;5062186;28;1255;-71
2022/05/13 07:20:12;;;;;;;;;;;19.20;63.70;;;;;;5090544;28;1169;-72
2022/05/13 07:22:37;;;;;;;;;;;19.20;63.70;;;;;;5076144;28;1046;-71
2022/05/13 07:25:03;;;;;;;;;;;19.20;63.70;;;;;;5093986;28;900;-71
2022/05/13 07:27:29;;;;;;;;;;;19.20;63.70;;;;;;5092924;28;1277;-68
2022/05/13 07:29:54;;;;;;;;;;;19.20;63.70;;;;;;5113902;28;1069;-68
2022/05/13 07:32:20;;;;;;;;;;;19.20;63.70;;;;;;5114131;28;622;-68
2022/05/13 07:34:45;;;;;;;;;;;19.20;63.70;;;;;;5114026;28;1901;-68
2022/05/13 07:37:10;;;;;;;;;;;19.20;63.70;;;;;;5114497;28;1210;-69
2022/05/13 07:42:20;;;;;;;;;;;19.20;63.70;;;;;;5099087;28;729;-70
2022/05/13 07:44:45;;;;;;;;;;;19.20;63.70;;;;;;5095689;28;859;-70
2022/05/13 07:47:11;;;;;;;;;;;19.20;63.70;;;;;;5095910;28;1313;-71
2022/05/13 07:49:37;;;;;;;;;;;19.20;63.70;;;;;;5113608;28;867;-71
2022/05/13 07:52:03;;;;;;;;;;;19.20;63.70;;;;;;5095881;28;836;-70
2022/05/13 07:54:28;;;;;;;;;;;19.20;63.70;;;;;;5113789;28;1050;-70
2022/05/13 07:56:54;;;;;;;;;;;19.20;63.70;;;;;;5113715;28;1960;-74
2022/05/13 07:59:20;;;;;;;;;;;19.20;63.70;;;;;;5113329;28;919;-73
2022/05/13 08:01:45;;;;;;;;;;;19.20;63.70;;;;;;5113620;28;914;-73
2022/05/13 08:04:11;;;;;;;;;;;19.20;63.70;;;;;;5094995;28;1078;-74
2022/05/13 08:06:37;;;;;;;;;;;19.20;63.70;;;;;;5113585;28;1282;-73
2022/05/13 08:09:03;;;;;;;;;;;19.20;63.70;;;;;;5113466;28;1070;-71
2022/05/13 08:11:29;;;;;;;;;;;19.20;63.70;;;;;;5113791;28;986;-71
2022/05/13 08:13:56;;;;;;;;;;;19.20;63.70;;;;;;5113449;28;851;-71
2022/05/13 08:16:22;;;;;;;;;;;19.20;63.80;;;;;;5095377;28;1959;-71
2022/05/13 08:18:47;;;;;;;;;;;19.20;63.70;;;;;;5095225;28;1269;-69
2022/05/13 08:21:13;;;;;;;;;;;19.20;63.70;;;;;;5098502;28;2031;-70
2022/05/13 08:23:38;;;;;;;;;;;19.20;63.70;;;;;;5092905;28;1084;-68
2022/05/13 08:26:04;;;;;;;;;;;19.20;63.70;;;;;;5076265;28;1367;-69
2022/05/13 08:28:29;;;;;;;;;;;19.20;63.70;;;;;;5092953;28;809;-69
2022/05/13 08:30:55;;;;;;;;;;;19.20;63.70;;;;;;5074513;28;936;-69
2022/05/13 08:33:20;;;;;;;;;;;19.20;63.70;;;;;;5093013;28;816;-69
2022/05/13 08:35:46;;;;;;;;;;;19.20;63.70;;;;;;5092801;28;1959;-68
2022/05/13 08:38:12;;;;;;;;;;;19.20;63.70;;;;;;5093212;28;1152;-69
2022/05/13 08:40:50;;;;;;;;;;;19.20;63.70;;;;;;5092975;28;1034;-69
2022/05/13 08:43:21;;;;;;;;;;;19.20;63.70;;;;;;5093044;28;849;-70
2022/05/13 08:45:50;;;;;;;;;;;19.20;63.70;;;;;;5092865;28;1200;-71
2022/05/13 08:48:17;;;;;;;;;;;19.20;63.80;;;;;;5093441;28;892;-71
2022/05/13 08:51:12;;;;;;;;;;;19.20;63.70;;;;;;5075028;28;1069;-70
2022/05/13 08:53:40;;;;;;;;;;;19.20;63.70;;;;;;5071382;28;1242;-70
2022/05/13 08:56:07;;;;;;;;;;;19.20;63.70;;;;;;5092868;28;1898;-71
2022/05/13 08:58:45;;;;;;;;;;;19.20;63.70;;;;;;5075277;28;1077;-71
2022/05/13 09:01:14;;;;;;;;;;;19.20;63.70;;;;;;5074552;28;813;-70
2022/05/13 09:03:40;;;;;;;;;;;19.20;63.70;;;;;;5074794;28;990;-71
2022/05/13 09:06:24;;;;;;;;;;;19.20;63.70;;;;;;5074430;28;1199;-71
2022/05/13 09:08:50;;;;;;;;;;;19.20;64.10;;;;;;5092620;28;889;-71
2022/05/13 09:11:21;;;;;;;;;;;19.20;63.70;;;;;;5074775;28;816;-71
2022/05/13 09:13:50;;;;;;;;;;;19.20;63.70;;;;;;5093331;28;908;-71
2022/05/13 09:16:16;;;;;;;;;;;19.20;63.70;;;;;;5077636;28;1894;-71
2022/05/13 09:18:44;;;;;;;;;;;19.20;63.70;;;;;;5078072;28;1142;-71
2022/05/13 09:21:12;;;;;;;;;;;19.20;63.70;;;;;;5091594;28;1099;-70
2022/05/13 09:23:37;;;;;;;;;;;19.20;63.70;;;;;;5083377;28;1034;-71
2022/05/13 09:26:13;;;;;;;;;;;19.20;63.70;;;;;;5099572;28;1863;-71
2022/05/13 09:28:57;;;;;;;;;;;19.20;63.70;;;;;;5092544;28;2192;-72
2022/05/13 09:31:23;;;;;;;;;;;19.20;63.70;;;;;;5088712;28;1162;-71
2022/05/13 09:33:49;;;;;;;;;;;19.20;63.70;;;;;;5077778;28;1304;-71
2022/05/13 09:36:21;;;;;;;;;;;19.20;63.70;;;;;;5096018;28;1909;-72
2022/05/13 09:38:53;;;;;;;;;;;19.20;63.70;;;;;;5095782;28;902;-71
2022/05/13 09:41:34;;;;;;;;;;;19.20;63.70;;;;;;5095711;28;1044;-71
2022/05/13 09:44:04;;;;;;;;;;;19.20;63.70;;;;;;5060885;28;1558;-71
2022/05/13 09:46:33;;;;;;;;;;;19.20;63.70;;;;;;5078985;28;1305;-71
2022/05/13 09:48:59;;;;;;;;;;;19.20;63.70;;;;;;5077590;28;1054;-71
2022/05/13 09:51:38;;;;;;;;;;;19.20;63.70;;;;;;5077533;28;2220;-70
2022/05/13 09:54:11;;;;;;;;;;;19.20;63.70;;;;;;5077237;28;927;-72
2022/05/13 09:56:41;;;;;;;;;;;19.20;63.70;;;;;;5077379;28;1961;-72
2022/05/13 09:59:09;;;;;;;;;;;19.20;63.70;;;;;;5060519;28;1817;-72
2022/05/13 10:01:35;;;;;;;;;;;19.20;63.70;;;;;;5077346;28;1189;-73
2022/05/13 10:04:10;;;;;;;;;;;19.20;63.70;;;;;;5095377;28;1062;-73
2022/05/13 10:06:36;;;;;;;;;;;19.20;63.70;;;;;;5095333;28;1285;-72
2022/05/13 10:14:49;;;;;;;;;;;19.20;63.70;;;;;;5079692;28;1894;-72
2022/05/13 10:17:22;;;;;;;;;;;19.20;63.70;;;;;;5079325;22;3972;-67
2022/05/13 10:19:51;;;;;;;;;;;19.20;63.70;;;;;;5044436;28;1216;-68
2022/05/13 10:22:20;;;;;;;;;;;19.20;63.80;;;;;;5037089;28;773;-68
2022/05/13 10:24:47;;;;;;;;;;;19.20;65.70;;;;;;5036273;28;923;-68
2022/05/13 10:27:45;;;;;;;;;;;19.20;66.30;;;;;;5050048;28;1376;-67
2022/05/13 10:30:12;;;;;;;;;;;19.20;66.80;;;;;;5018591;28;1263;-68
2022/05/13 10:32:40;;;;;;;;;;;19.30;67.30;;;;;;5056713;28;896;-68
2022/05/13 10:35:07;;;;;;;;;;;19.30;67.50;;;;;;5056538;28;1981;-68
2022/05/13 10:37:50;;;;;;;;;;;19.30;67.80;;;;;;5039803;28;1205;-68
2022/05/13 10:40:16;;;;;;;;;;;19.30;67.50;;;;;;5055364;28;1101;-68
2022/05/13 10:42:48;;;;;;;;;;;19.30;67.40;;;;;;5056382;28;783;-67
2022/05/13 10:45:17;;;;;;;;;;;19.30;67.50;;;;;;5056240;28;1047;-68
2022/05/13 10:47:45;;;;;;;;;;;19.30;67.50;;;;;;5056321;28;1193;-68
2022/05/13 10:50:15;;;;;;;;;;;19.40;68.00;;;;;;5055270;28;1105;-68
2022/05/13 10:52:54;;;;;;;;;;;19.40;68.40;;;;;;5055794;28;1171;-68
2022/05/13 10:55:20;;;;;;;;;;;19.40;68.80;;;;;;5056031;28;1945;-68
2022/05/13 10:58:08;;;;;;;;;;;19.40;68.60;;;;;;5074161;28;1208;-68
2022/05/13 11:00:44;;;;;;;;;;;19.40;69.00;;;;;;5054930;28;896;-68
2022/05/13 11:03:29;;;;;;;;;;;19.40;69.20;;;;;;5055892;28;928;-68
2022/05/13 11:05:56;;;;;;;;;;;19.40;68.80;;;;;;5074062;28;890;-68
2022/05/13 11:08:40;;;;;;;;;;;19.40;69.60;;;;;;5055378;28;1198;-68
2022/05/13 11:11:27;;;;;;;;;;;19.40;68.90;;;;;;5073046;28;931;-68
2022/05/13 11:14:11;;;;;;;;;;;19.40;68.70;;;;;;5036149;28;2251;-66
2022/05/13 11:16:43;;;;;;;;;;;19.40;68.50;;;;;;5049372;28;1957;-67
2022/05/13 11:19:24;;;;;;;;;;;19.40;68.40;;;;;;5062050;28;1464;-67
2022/05/13 11:21:52;;;;;;;;;;;19.40;68.50;;;;;;5063150;28;1612;-68
2022/05/13 11:27:40;;;;;;;;;;;19.40;68.30;;;;;;5052993;28;1502;-67
2022/05/13 11:30:10;;;;;;;;;;;19.40;68.30;;;;;;5067224;28;1373;-68
2022/05/13 11:32:45;;;;;;;;;;;19.40;68.20;;;;;;5073826;28;832;-66
2022/05/13 11:35:29;;;;;;;;;;;19.40;67.90;;;;;;5055263;28;1910;-67
2022/05/13 11:37:56;;;;;;;;;;;19.40;67.70;;;;;;5072716;28;1354;-66
2022/05/13 11:40:25;;;;;;;;;;;19.40;67.70;;;;;;5054016;28;988;-66
2022/05/13 11:43:18;;;;;;;;;;;19.40;67.50;;;;;;5073304;28;1078;-67
2022/05/13 11:46:00;;;;;;;;;;;19.40;67.20;;;;;;5072633;28;1018;-66
2022/05/13 11:48:29;;;;;;;;;;;19.40;67.10;;;;;;5072776;28;1173;-66
2022/05/13 11:51:05;;;;;;;;;;;19.40;67.00;;;;;;5054617;28;1031;-65
2022/05/13 11:53:49;;;;;;;;;;;19.40;66.90;;;;;;5055138;28;936;-65
2022/05/13 11:56:29;;;;;;;;;;;19.40;66.80;;;;;;5073105;28;1961;-66
2022/05/13 11:58:58;;;;;;;;;;;19.40;66.80;;;;;;5072843;28;885;-67
2022/05/13 12:01:48;;;;;;;;;;;19.40;66.70;;;;;;5037612;28;1198;-66
2022/05/13 12:04:14;;;;;;;;;;;19.40;66.60;;;;;;5072945;28;1338;-67
2022/05/13 12:06:49;;;;;;;;;;;19.40;67.30;;;;;;5072494;28;1189;-67
2022/05/13 12:09:15;;;;;;;;;;;19.40;66.40;;;;;;5072083;28;829;-67
2022/05/13 12:11:53;;;;;;;;;;;19.40;66.40;;;;;;5063517;28;1492;-67
2022/05/13 12:14:39;;;;;;;;;;;19.40;66.30;;;;;;5043622;28;1375;-65
2022/05/13 12:17:12;;;;;;;;;;;19.40;66.20;;;;;;5041831;28;1898;-65
2022/05/13 12:19:40;;;;;;;;;;;19.40;66.10;;;;;;5027583;28;1451;-66
2022/05/13 12:22:08;;;;;;;;;;;19.40;66.10;;;;;;5031798;28;1495;-66
2022/05/13 12:24:53;;;;;;;;;;;19.40;66.00;;;;;;5031871;28;1606;-68
2022/05/13 12:27:27;;;;;;;;;;;19.40;66.00;;;;;;5049127;28;1988;-67
2022/05/13 12:29:57;;;;;;;;;;;19.40;65.90;;;;;;5031546;28;1878;-67
2022/05/13 12:32:23;;;;;;;;;;;19.40;65.90;;;;;;5030189;28;1900;-68
2022/05/13 12:37:46;;;;;;;;;;;19.40;65.80;;;;;;5034970;28;1293;-66
2022/05/13 12:40:12;;;;;;;;;;;19.30;65.70;;;;;;5041169;28;1410;-66
2022/05/13 12:42:39;;;;;;;;;;;19.40;65.70;;;;;;5039732;28;1199;-67
2022/05/13 12:45:05;;;;;;;;;;;19.40;65.60;;;;;;5030642;28;1278;-66
2022/05/13 12:47:31;;;;;;;;;;;19.40;65.60;;;;;;5030104;28;1343;-65
2022/05/13 12:50:00;;;;;;;;;;;19.40;65.60;;;;;;5041805;28;1192;-66
2022/05/13 12:52:29;;;;;;;;;;;19.40;65.60;;;;;;5036072;28;1223;-66
2022/05/13 12:54:57;;;;;;;;;;;19.40;65.60;;;;;;5044242;28;1907;-66
2022/05/13 12:57:27;;;;;;;;;;;19.40;65.50;;;;;;5052409;28;2206;-66
2022/05/13 12:59:53;;;;;;;;;;;19.40;65.50;;;;;;5032655;28;1303;-67
2022/05/13 13:02:21;;;;;;;;;;;19.40;65.40;;;;;;5056471;28;1186;-65
2022/05/13 13:04:54;;;;;;;;;;;19.40;65.40;;;;;;5064034;28;1094;-66
2022/05/13 13:07:21;;;;;;;;;;;19.40;65.40;;;;;;5044194;28;1254;-65
2022/05/13 13:09:47;;;;;;;;;;;19.30;65.30;;;;;;5055293;28;951;-66
2022/05/13 13:12:26;;;;;;;;;;;19.40;65.40;;;;;;5038212;28;817;-65
2022/05/13 13:14:52;;;;;;;;;;;19.30;65.20;;;;;;5063806;28;1105;-65
2022/05/13 13:17:36;;;;;;;;;;;19.30;65.20;;;;;;5063949;28;1907;-66
2022/05/13 13:20:03;;;;;;;;;;;19.40;65.30;;;;;;5069795;28;1147;-65
2022/05/13 13:22:34;;;;;;;;;;;19.40;65.20;;;;;;5037467;28;1474;-66
2022/05/13 13:25:00;;;;;;;;;;;19.40;65.20;;;;;;5055764;28;912;-67
2022/05/13 13:27:30;;;;;;;;;;;19.40;65.20;;;;;;5037024;28;1948;-66
2022/05/13 13:29:56;;;;;;;;;;;19.40;65.20;;;;;;5054798;28;1320;-65
2022/05/13 13:32:21;;;;;;;;;;;19.30;65.10;;;;;;5053784;28;1768;-65
2022/05/13 13:34:48;;;;;;;;;;;19.40;65.20;;;;;;5054305;28;1179;-65
2022/05/13 13:37:14;;;;;;;;;;;19.30;65.10;;;;;;5054779;28;1967;-65
2022/05/13 13:39:39;;;;;;;;;;;19.40;65.20;;;;;;5036827;28;1080;-65
2022/05/13 13:42:06;;;;;;;;;;;19.30;65.00;;;;;;5055357;28;1073;-66
2022/05/13 13:44:31;;;;;;;;;;;19.30;64.90;;;;;;5058752;28;1126;-65
2022/05/13 13:46:57;;;;;;;;;;;19.30;65.00;;;;;;5055243;28;1221;-65
2022/05/13 13:49:26;;;;;;;;;;;19.30;65.00;;;;;;5054987;28;1003;-68
2022/05/13 13:51:52;;;;;;;;;;;19.30;64.90;;;;;;5037605;28;735;-67
2022/05/13 13:54:20;;;;;;;;;;;19.40;65.00;;;;;;5037312;28;879;-67
2022/05/13 13:56:58;;;;;;;;;;;19.40;65.00;;;;;;5018786;28;2428;-68
2022/05/13 13:59:25;;;;;;;;;;;19.40;65.00;;;;;;5050364;28;1255;-68
2022/05/13 14:01:51;;;;;;;;;;;19.40;64.90;;;;;;5036866;28;1212;-69
2022/05/13 14:04:18;;;;;;;;;;;19.40;64.10;;;;;;5034556;28;1108;-68
2022/05/13 14:06:43;;;;;;;;;;;19.30;61.50;;;;;;5033936;28;1188;-68
2022/05/13 14:09:13;;;;;;;;;;;19.30;60.50;;;;;;5042926;28;2225;-68
2022/05/13 14:11:39;;;;;;;;;;;19.40;60.30;;;;;;5053304;28;1366;-68
2022/05/13 14:14:06;;;;;;;;;;;19.40;60.60;;;;;;5056967;28;735;-68
2022/05/13 14:16:33;;;;;;;;;;;19.40;60.20;;;;;;5074443;28;1957;-69
2022/05/13 14:19:03;;;;;;;;;;;19.40;58.70;;;;;;5057092;28;923;-67
2022/05/13 14:21:30;;;;;;;;;;;19.40;59.50;;;;;;5057869;28;1197;-68
2022/05/13 14:23:59;;;;;;;;;;;19.40;59.40;;;;;;5054979;28;844;-68
2022/05/13 14:26:25;;;;;;;;;;;19.40;60.00;;;;;;5054604;28;1335;-68
2022/05/13 14:28:52;;;;;;;;;;;19.40;59.90;;;;;;5036833;28;908;-68
2022/05/13 14:31:23;;;;;;;;;;;19.50;59.30;;;;;;5036723;28;888;-68
2022/05/13 14:33:52;;;;;;;;;;;19.50;59.10;;;;;;5036939;28;884;-68
2022/05/13 14:36:18;;;;;;;;;;;19.50;57.70;;;;;;5036292;28;1910;-68
2022/05/13 14:41:31;;;;;;;;;;;19.50;57.90;;;;;;5054013;28;715;-67
2022/05/13 14:43:57;;;;;;;;;;;19.50;58.60;;;;;;5036622;28;851;-67
2022/05/13 14:46:26;;;;;;;;;;;19.50;58.90;;;;;;5054047;28;1165;-67
2022/05/13 14:48:52;;;;;;;;;;;19.60;59.50;;;;;;5036638;28;837;-67
2022/05/13 14:51:18;;;;;;;;;;;19.60;59.80;;;;;;5036046;28;813;-68
2022/05/13 14:53:46;;;;;;;;;;;19.60;60.40;;;;;;5054458;28;1018;-67
2022/05/13 14:56:12;;;;;;;;;;;19.60;60.90;;;;;;5053588;28;1951;-67
2022/05/13 14:58:50;;;;;;;;;;;19.60;60.60;;;;;;5053908;28;888;-67
2022/05/13 15:01:16;;;;;;;;;;;19.60;60.30;;;;;;5035821;28;935;-67
2022/05/13 15:03:44;;;;;;;;;;;19.60;60.50;;;;;;5053969;28;1003;-67
2022/05/13 15:06:20;;;;;;;;;;;19.60;60.80;;;;;;5053640;28;923;-67
2022/05/13 15:08:46;;;;;;;;;;;19.60;60.80;;;;;;5035769;28;1023;-67